sensor_id;sensor_type;location;lat;lon;timestamp;temperature;humidity
28773;DHT22;15925;51.222;5.678;2023-11-19T00:01:23;12.80;99.90
28773;DHT22;15925;51.222;5.678;2023-11-19T00:03:48;12.80;99.90
28773;DHT22;15925;51.222;5.678;2023-11-19T00:06:15;12.90;99.90
28773;DHT22;15925;51.222;5.678;2023-11-19T00:08:42;12.90;99.90
28773;DHT22;15925;51.222;5.678;2023-11-19T00:11:09;12.90;99.90
28773;DHT22;15925;51.222;5.678;2023-11-19T00:13:34;12.80;99.90
28773;DHT22;15925;51.222;5.678;2023-11-19T00:16:01;12.90;99.90
28773;DHT22;15925;51.222;5.678;2023-11-19T00:18:29;12.90;99.90
28773;DHT22;15925;51.222;5.678;2023-11-19T00:20:55;12.90;99.90
28773;DHT22;15925;51.222;5.678;2023-11-19T00:23:21;12.90;99.90
28773;DHT22;15925;51.222;5.678;2023-11-19T00:25:46;12.90;99.90
28773;DHT22;15925;51.222;5.678;2023-11-19T00:28:13;12.90;99.90
28773;DHT22;15925;51.222;5.678;2023-11-19T00:30:39;12.90;99.90
28773;DHT22;15925;51.222;5.678;2023-11-19T00:33:06;12.90;99.90
28773;DHT22;15925;51.222;5.678;2023-11-19T00:35:32;12.90;99.90
28773;DHT22;15925;51.222;5.678;2023-11-19T00:37:58;12.90;99.90
28773;DHT22;15925;51.222;5.678;2023-11-19T00:40:24;12.90;99.90
28773;DHT22;15925;51.222;5.678;2023-11-19T00:42:50;12.90;99.90
28773;DHT22;15925;51.222;5.678;2023-11-19T00:45:16;13.00;99.90
28773;DHT22;15925;51.222;5.678;2023-11-19T00:47:41;13.00;99.90
28773;DHT22;15925;51.222;5.678;2023-11-19T00:50:08;12.90;99.90
28773;DHT22;15925;51.222;5.678;2023-11-19T00:52:38;12.90;99.90
28773;DHT22;15925;51.222;5.678;2023-11-19T00:55:05;12.90;99.90
28773;DHT22;15925;51.222;5.678;2023-11-19T00:57:31;13.00;99.90
28773;DHT22;15925;51.222;5.678;2023-11-19T01:00:01;13.00;99.90
28773;DHT22;15925;51.222;5.678;2023-11-19T01:02:26;13.00;99.90
28773;DHT22;15925;51.222;5.678;2023-11-19T01:04:52;13.00;99.90
28773;DHT22;15925;51.222;5.678;2023-11-19T01:07:18;13.00;99.90
28773;DHT22;15925;51.222;5.678;2023-11-19T01:09:44;13.00;99.90
28773;DHT22;15925;51.222;5.678;2023-11-19T01:12:10;13.00;99.90
28773;DHT22;15925;51.222;5.678;2023-11-19T01:14:36;13.00;99.90
28773;DHT22;15925;51.222;5.678;2023-11-19T01:17:02;13.00;99.90
28773;DHT22;15925;51.222;5.678;2023-11-19T01:19:28;13.00;99.90
28773;DHT22;15925;51.222;5.678;2023-11-19T01:21:55;13.00;99.90
28773;DHT22;15925;51.222;5.678;2023-11-19T01:24:22;13.00;99.90
28773;DHT22;15925;51.222;5.678;2023-11-19T01:26:47;13.00;99.90
28773;DHT22;15925;51.222;5.678;2023-11-19T01:29:14;13.00;99.90
28773;DHT22;15925;51.222;5.678;2023-11-19T01:31:41;13.00;99.90
28773;DHT22;15925;51.222;5.678;2023-11-19T01:34:07;13.00;99.90
28773;DHT22;15925;51.222;5.678;2023-11-19T01:36:33;13.10;99.90
28773;DHT22;15925;51.222;5.678;2023-11-19T01:38:59;13.10;99.90
28773;DHT22;15925;51.222;5.678;2023-11-19T01:41:25;13.10;99.90
28773;DHT22;15925;51.222;5.678;2023-11-19T01:43:51;13.10;99.90
28773;DHT22;15925;51.222;5.678;2023-11-19T01:46:16;13.10;99.90
28773;DHT22;15925;51.222;5.678;2023-11-19T01:48:46;13.10;99.90
28773;DHT22;15925;51.222;5.678;2023-11-19T01:51:16;13.10;99.90
28773;DHT22;15925;51.222;5.678;2023-11-19T01:53:43;13.10;99.90
28773;DHT22;15925;51.222;5.678;2023-11-19T01:56:10;13.10;99.90
28773;DHT22;15925;51.222;5.678;2023-11-19T01:58:38;13.10;99.90
28773;DHT22;15925;51.222;5.678;2023-11-19T02:01:05;13.20;99.90
28773;DHT22;15925;51.222;5.678;2023-11-19T02:03:33;13.20;99.90
28773;DHT22;15925;51.222;5.678;2023-11-19T02:06:00;13.10;99.90
28773;DHT22;15925;51.222;5.678;2023-11-19T02:08:26;13.10;99.90
28773;DHT22;15925;51.222;5.678;2023-11-19T02:10:52;13.10;99.90
28773;DHT22;15925;51.222;5.678;2023-11-19T02:13:20;13.10;99.90
28773;DHT22;15925;51.222;5.678;2023-11-19T02:15:46;13.20;99.90
28773;DHT22;15925;51.222;5.678;2023-11-19T02:20:46;13.20;99.90
28773;DHT22;15925;51.222;5.678;2023-11-19T02:23:13;13.20;99.90
28773;DHT22;15925;51.222;5.678;2023-11-19T02:25:40;13.20;99.90
28773;DHT22;15925;51.222;5.678;2023-11-19T02:28:06;13.20;99.90
28773;DHT22;15925;51.222;5.678;2023-11-19T02:30:32;13.20;99.90
28773;DHT22;15925;51.222;5.678;2023-11-19T02:32:59;13.30;99.90
28773;DHT22;15925;51.222;5.678;2023-11-19T02:35:27;13.20;99.90
28773;DHT22;15925;51.222;5.678;2023-11-19T02:37:57;13.20;99.90
28773;DHT22;15925;51.222;5.678;2023-11-19T02:40:23;13.20;99.90
28773;DHT22;15925;51.222;5.678;2023-11-19T02:42:50;13.20;99.90
28773;DHT22;15925;51.222;5.678;2023-11-19T02:45:16;13.20;99.90
28773;DHT22;15925;51.222;5.678;2023-11-19T02:47:43;13.20;99.90
28773;DHT22;15925;51.222;5.678;2023-11-19T02:50:10;13.20;99.90
28773;DHT22;15925;51.222;5.678;2023-11-19T02:52:43;13.20;99.90
28773;DHT22;15925;51.222;5.678;2023-11-19T02:55:10;13.10;99.90
28773;DHT22;15925;51.222;5.678;2023-11-19T02:57:39;13.10;99.90
28773;DHT22;15925;51.222;5.678;2023-11-19T03:00:17;13.10;99.90
28773;DHT22;15925;51.222;5.678;2023-11-19T03:02:45;13.10;99.90
28773;DHT22;15925;51.222;5.678;2023-11-19T03:05:19;13.10;99.90
28773;DHT22;15925;51.222;5.678;2023-11-19T03:07:45;13.00;99.90
28773;DHT22;15925;51.222;5.678;2023-11-19T03:10:12;13.00;99.90
28773;DHT22;15925;51.222;5.678;2023-11-19T03:12:40;13.00;99.90
28773;DHT22;15925;51.222;5.678;2023-11-19T03:15:06;13.00;99.90
28773;DHT22;15925;51.222;5.678;2023-11-19T03:17:32;13.00;99.90
28773;DHT22;15925;51.222;5.678;2023-11-19T03:20:00;12.90;99.90
28773;DHT22;15925;51.222;5.678;2023-11-19T03:22:28;12.90;99.90
28773;DHT22;15925;51.222;5.678;2023-11-19T03:24:55;12.90;99.90
28773;DHT22;15925;51.222;5.678;2023-11-19T03:27:22;12.80;99.90
28773;DHT22;15925;51.222;5.678;2023-11-19T03:29:48;12.80;99.90
28773;DHT22;15925;51.222;5.678;2023-11-19T03:32:14;12.80;99.90
28773;DHT22;15925;51.222;5.678;2023-11-19T03:34:40;12.80;99.90
28773;DHT22;15925;51.222;5.678;2023-11-19T03:37:06;12.80;99.90
28773;DHT22;15925;51.222;5.678;2023-11-19T03:39:32;12.80;99.90
28773;DHT22;15925;51.222;5.678;2023-11-19T03:41:58;12.80;99.90
28773;DHT22;15925;51.222;5.678;2023-11-19T03:44:24;12.80;99.90
28773;DHT22;15925;51.222;5.678;2023-11-19T03:46:52;12.70;99.90
28773;DHT22;15925;51.222;5.678;2023-11-19T03:49:20;12.70;99.90
28773;DHT22;15925;51.222;5.678;2023-11-19T03:51:45;12.70;99.90
28773;DHT22;15925;51.222;5.678;2023-11-19T03:54:11;12.60;99.90
28773;DHT22;15925;51.222;5.678;2023-11-19T03:56:37;12.60;99.90
28773;DHT22;15925;51.222;5.678;2023-11-19T03:59:03;12.60;99.90
28773;DHT22;15925;51.222;5.678;2023-11-19T04:01:28;12.60;99.90
28773;DHT22;15925;51.222;5.678;2023-11-19T04:03:54;12.60;99.90
28773;DHT22;15925;51.222;5.678;2023-11-19T04:06:21;12.60;99.90
28773;DHT22;15925;51.222;5.678;2023-11-19T04:08:47;12.60;99.90
28773;DHT22;15925;51.222;5.678;2023-11-19T04:11:13;12.60;99.90
28773;DHT22;15925;51.222;5.678;2023-11-19T04:13:38;12.60;99.90
28773;DHT22;15925;51.222;5.678;2023-11-19T04:16:05;12.60;99.90
28773;DHT22;15925;51.222;5.678;2023-11-19T04:18:31;12.70;99.90
28773;DHT22;15925;51.222;5.678;2023-11-19T04:20:57;12.70;99.90
28773;DHT22;15925;51.222;5.678;2023-11-19T04:23:24;12.70;99.90
28773;DHT22;15925;51.222;5.678;2023-11-19T04:25:50;12.70;99.90
28773;DHT22;15925;51.222;5.678;2023-11-19T04:28:16;12.70;99.90
28773;DHT22;15925;51.222;5.678;2023-11-19T04:30:43;12.70;99.90
28773;DHT22;15925;51.222;5.678;2023-11-19T04:33:10;12.70;99.90
28773;DHT22;15925;51.222;5.678;2023-11-19T04:35:35;12.70;99.90
28773;DHT22;15925;51.222;5.678;2023-11-19T04:38:02;12.70;99.90
28773;DHT22;15925;51.222;5.678;2023-11-19T04:40:27;12.70;99.90
28773;DHT22;15925;51.222;5.678;2023-11-19T04:42:53;12.80;99.90
28773;DHT22;15925;51.222;5.678;2023-11-19T04:45:19;12.80;99.90
28773;DHT22;15925;51.222;5.678;2023-11-19T04:47:45;12.70;99.90
28773;DHT22;15925;51.222;5.678;2023-11-19T04:50:11;12.70;99.90
28773;DHT22;15925;51.222;5.678;2023-11-19T04:52:40;12.70;99.90
28773;DHT22;15925;51.222;5.678;2023-11-19T04:55:06;12.70;99.90
28773;DHT22;15925;51.222;5.678;2023-11-19T04:57:32;12.70;99.90
28773;DHT22;15925;51.222;5.678;2023-11-19T04:59:58;12.70;99.90
28773;DHT22;15925;51.222;5.678;2023-11-19T05:02:24;12.70;99.90
28773;DHT22;15925;51.222;5.678;2023-11-19T05:04:50;12.70;99.90
28773;DHT22;15925;51.222;5.678;2023-11-19T05:07:16;12.70;99.90
28773;DHT22;15925;51.222;5.678;2023-11-19T05:09:41;12.70;99.90
28773;DHT22;15925;51.222;5.678;2023-11-19T05:12:10;12.70;99.90
28773;DHT22;15925;51.222;5.678;2023-11-19T05:14:38;12.70;99.90
28773;DHT22;15925;51.222;5.678;2023-11-19T05:17:04;12.70;99.90
28773;DHT22;15925;51.222;5.678;2023-11-19T05:19:29;12.70;99.90
28773;DHT22;15925;51.222;5.678;2023-11-19T05:21:55;12.60;99.90
28773;DHT22;15925;51.222;5.678;2023-11-19T05:24:21;12.60;99.90
28773;DHT22;15925;51.222;5.678;2023-11-19T05:26:46;12.60;99.90
28773;DHT22;15925;51.222;5.678;2023-11-19T05:29:12;12.60;99.90
28773;DHT22;15925;51.222;5.678;2023-11-19T05:31:38;12.60;99.90
28773;DHT22;15925;51.222;5.678;2023-11-19T05:34:04;12.60;99.90
28773;DHT22;15925;51.222;5.678;2023-11-19T05:36:30;12.60;99.90
28773;DHT22;15925;51.222;5.678;2023-11-19T05:38:56;12.50;99.90
28773;DHT22;15925;51.222;5.678;2023-11-19T05:41:21;12.60;99.90
28773;DHT22;15925;51.222;5.678;2023-11-19T05:43:47;12.50;99.90
28773;DHT22;15925;51.222;5.678;2023-11-19T05:46:13;12.50;99.90
28773;DHT22;15925;51.222;5.678;2023-11-19T05:48:40;12.50;99.90
28773;DHT22;15925;51.222;5.678;2023-11-19T05:51:07;12.40;99.90
28773;DHT22;15925;51.222;5.678;2023-11-19T05:53:33;12.40;99.90
28773;DHT22;15925;51.222;5.678;2023-11-19T05:55:59;12.40;99.90
28773;DHT22;15925;51.222;5.678;2023-11-19T05:58:29;12.40;99.90
28773;DHT22;15925;51.222;5.678;2023-11-19T06:00:58;12.30;99.90
28773;DHT22;15925;51.222;5.678;2023-11-19T06:03:28;12.30;99.90
28773;DHT22;15925;51.222;5.678;2023-11-19T06:05:53;12.20;99.90
28773;DHT22;15925;51.222;5.678;2023-11-19T06:08:22;12.20;99.90
28773;DHT22;15925;51.222;5.678;2023-11-19T06:10:48;12.20;99.90
28773;DHT22;15925;51.222;5.678;2023-11-19T06:13:16;12.20;99.90
28773;DHT22;15925;51.222;5.678;2023-11-19T06:15:42;12.10;99.90
28773;DHT22;15925;51.222;5.678;2023-11-19T06:18:08;12.10;99.90
28773;DHT22;15925;51.222;5.678;2023-11-19T06:20:35;12.10;99.90
28773;DHT22;15925;51.222;5.678;2023-11-19T06:23:01;12.00;99.90
28773;DHT22;15925;51.222;5.678;2023-11-19T06:25:26;12.00;99.90
28773;DHT22;15925;51.222;5.678;2023-11-19T06:27:53;12.00;99.90
28773;DHT22;15925;51.222;5.678;2023-11-19T06:30:19;11.90;99.90
28773;DHT22;15925;51.222;5.678;2023-11-19T06:32:46;11.90;99.90
28773;DHT22;15925;51.222;5.678;2023-11-19T06:35:12;11.90;99.90
28773;DHT22;15925;51.222;5.678;2023-11-19T06:37:40;11.80;99.90
28773;DHT22;15925;51.222;5.678;2023-11-19T06:40:06;11.90;99.90
28773;DHT22;15925;51.222;5.678;2023-11-19T06:42:32;11.80;99.90
28773;DHT22;15925;51.222;5.678;2023-11-19T06:44:58;11.80;99.90
28773;DHT22;15925;51.222;5.678;2023-11-19T06:47:27;11.70;99.90
28773;DHT22;15925;51.222;5.678;2023-11-19T06:49:54;11.70;99.90
28773;DHT22;15925;51.222;5.678;2023-11-19T06:52:20;11.70;99.90
28773;DHT22;15925;51.222;5.678;2023-11-19T06:54:47;11.70;99.90
28773;DHT22;15925;51.222;5.678;2023-11-19T06:57:13;11.60;99.90
28773;DHT22;15925;51.222;5.678;2023-11-19T06:59:39;11.60;99.90
28773;DHT22;15925;51.222;5.678;2023-11-19T07:02:05;11.60;99.90
28773;DHT22;15925;51.222;5.678;2023-11-19T07:04:32;11.60;99.90
28773;DHT22;15925;51.222;5.678;2023-11-19T07:06:58;11.60;99.90
28773;DHT22;15925;51.222;5.678;2023-11-19T07:09:25;11.60;99.90
28773;DHT22;15925;51.222;5.678;2023-11-19T07:11:52;11.60;99.90
28773;DHT22;15925;51.222;5.678;2023-11-19T07:14:19;11.60;99.90
28773;DHT22;15925;51.222;5.678;2023-11-19T07:16:45;11.60;99.90
28773;DHT22;15925;51.222;5.678;2023-11-19T07:19:11;11.60;99.90
28773;DHT22;15925;51.222;5.678;2023-11-19T07:21:40;11.60;99.90
28773;DHT22;15925;51.222;5.678;2023-11-19T07:24:10;11.60;99.90
28773;DHT22;15925;51.222;5.678;2023-11-19T07:26:45;11.60;99.90
28773;DHT22;15925;51.222;5.678;2023-11-19T07:29:13;11.60;99.90
28773;DHT22;15925;51.222;5.678;2023-11-19T07:31:39;11.60;99.90
28773;DHT22;15925;51.222;5.678;2023-11-19T07:34:05;11.60;99.90
28773;DHT22;15925;51.222;5.678;2023-11-19T07:36:32;11.60;99.90
28773;DHT22;15925;51.222;5.678;2023-11-19T07:38:58;11.60;99.90
28773;DHT22;15925;51.222;5.678;2023-11-19T07:41:24;11.60;99.90
28773;DHT22;15925;51.222;5.678;2023-11-19T07:43:51;11.60;99.90
28773;DHT22;15925;51.222;5.678;2023-11-19T07:46:18;11.70;99.90
28773;DHT22;15925;51.222;5.678;2023-11-19T07:48:48;11.70;99.90
28773;DHT22;15925;51.222;5.678;2023-11-19T07:51:14;11.60;99.90
28773;DHT22;15925;51.222;5.678;2023-11-19T07:53:41;11.70;99.90
28773;DHT22;15925;51.222;5.678;2023-11-19T07:56:08;11.70;99.90
28773;DHT22;15925;51.222;5.678;2023-11-19T07:58:34;11.70;99.90
28773;DHT22;15925;51.222;5.678;2023-11-19T08:01:00;11.70;99.90
28773;DHT22;15925;51.222;5.678;2023-11-19T08:03:27;11.70;99.90
28773;DHT22;15925;51.222;5.678;2023-11-19T08:05:55;11.70;99.90
28773;DHT22;15925;51.222;5.678;2023-11-19T08:08:22;11.70;99.90
28773;DHT22;15925;51.222;5.678;2023-11-19T08:10:48;11.70;99.90
28773;DHT22;15925;51.222;5.678;2023-11-19T08:13:14;11.70;99.90
28773;DHT22;15925;51.222;5.678;2023-11-19T08:15:40;11.70;99.90
28773;DHT22;15925;51.222;5.678;2023-11-19T08:18:06;11.70;99.90
28773;DHT22;15925;51.222;5.678;2023-11-19T08:20:33;11.80;99.90
28773;DHT22;15925;51.222;5.678;2023-11-19T08:22:59;11.80;99.90
28773;DHT22;15925;51.222;5.678;2023-11-19T08:25:25;11.80;99.90
28773;DHT22;15925;51.222;5.678;2023-11-19T08:27:50;11.90;99.90
28773;DHT22;15925;51.222;5.678;2023-11-19T08:30:16;11.90;99.90
28773;DHT22;15925;51.222;5.678;2023-11-19T08:32:42;12.00;99.90
28773;DHT22;15925;51.222;5.678;2023-11-19T08:35:08;12.00;99.90
28773;DHT22;15925;51.222;5.678;2023-11-19T08:37:34;12.00;99.90
28773;DHT22;15925;51.222;5.678;2023-11-19T08:40:02;12.00;99.90
28773;DHT22;15925;51.222;5.678;2023-11-19T08:42:29;12.00;99.90
28773;DHT22;15925;51.222;5.678;2023-11-19T08:44:55;12.10;99.90
28773;DHT22;15925;51.222;5.678;2023-11-19T08:47:21;12.10;99.90
28773;DHT22;15925;51.222;5.678;2023-11-19T08:49:51;12.10;99.90
28773;DHT22;15925;51.222;5.678;2023-11-19T08:52:20;12.20;99.90
28773;DHT22;15925;51.222;5.678;2023-11-19T08:54:46;12.20;99.90
28773;DHT22;15925;51.222;5.678;2023-11-19T08:57:12;12.30;99.90
28773;DHT22;15925;51.222;5.678;2023-11-19T08:59:37;12.30;99.90
28773;DHT22;15925;51.222;5.678;2023-11-19T09:02:07;12.40;99.90
28773;DHT22;15925;51.222;5.678;2023-11-19T09:04:33;12.40;99.90
28773;DHT22;15925;51.222;5.678;2023-11-19T09:06:59;12.40;99.90
28773;DHT22;15925;51.222;5.678;2023-11-19T09:09:26;12.40;99.90
28773;DHT22;15925;51.222;5.678;2023-11-19T09:11:51;12.50;99.90
28773;DHT22;15925;51.222;5.678;2023-11-19T09:14:18;12.50;99.90
28773;DHT22;15925;51.222;5.678;2023-11-19T09:16:44;12.50;99.90
28773;DHT22;15925;51.222;5.678;2023-11-19T09:19:10;12.50;99.90
28773;DHT22;15925;51.222;5.678;2023-11-19T09:21:35;12.60;99.90
28773;DHT22;15925;51.222;5.678;2023-11-19T09:24:04;12.60;99.90
28773;DHT22;15925;51.222;5.678;2023-11-19T09:26:30;12.60;99.90
28773;DHT22;15925;51.222;5.678;2023-11-19T09:28:56;12.60;99.90
28773;DHT22;15925;51.222;5.678;2023-11-19T09:31:22;12.60;99.90
28773;DHT22;15925;51.222;5.678;2023-11-19T09:33:47;12.60;99.90
28773;DHT22;15925;51.222;5.678;2023-11-19T09:36:13;12.70;99.90
28773;DHT22;15925;51.222;5.678;2023-11-19T09:38:43;12.60;99.90
28773;DHT22;15925;51.222;5.678;2023-11-19T09:41:10;12.70;99.90
28773;DHT22;15925;51.222;5.678;2023-11-19T09:43:39;12.70;99.90
28773;DHT22;15925;51.222;5.678;2023-11-19T09:46:06;12.80;99.90
28773;DHT22;15925;51.222;5.678;2023-11-19T09:48:36;12.80;99.90
28773;DHT22;15925;51.222;5.678;2023-11-19T09:51:04;12.80;99.90
28773;DHT22;15925;51.222;5.678;2023-11-19T09:53:30;12.90;99.90
28773;DHT22;15925;51.222;5.678;2023-11-19T09:55:56;12.90;99.90
28773;DHT22;15925;51.222;5.678;2023-11-19T09:58:24;13.00;99.90
28773;DHT22;15925;51.222;5.678;2023-11-19T10:00:50;13.00;99.90
28773;DHT22;15925;51.222;5.678;2023-11-19T10:03:17;13.00;99.90
28773;DHT22;15925;51.222;5.678;2023-11-19T10:05:43;13.10;99.90
28773;DHT22;15925;51.222;5.678;2023-11-19T10:08:09;13.10;99.90
28773;DHT22;15925;51.222;5.678;2023-11-19T10:10:37;13.10;99.90
28773;DHT22;15925;51.222;5.678;2023-11-19T10:13:03;13.10;99.90
28773;DHT22;15925;51.222;5.678;2023-11-19T10:15:36;13.10;99.90
28773;DHT22;15925;51.222;5.678;2023-11-19T10:18:03;13.00;99.90
28773;DHT22;15925;51.222;5.678;2023-11-19T10:20:40;13.00;99.90
28773;DHT22;15925;51.222;5.678;2023-11-19T10:23:06;13.00;99.90
28773;DHT22;15925;51.222;5.678;2023-11-19T10:25:34;13.00;99.90
28773;DHT22;15925;51.222;5.678;2023-11-19T10:28:00;13.10;99.90
28773;DHT22;15925;51.222;5.678;2023-11-19T10:30:30;13.20;99.90
28773;DHT22;15925;51.222;5.678;2023-11-19T10:33:12;13.20;99.90
28773;DHT22;15925;51.222;5.678;2023-11-19T10:35:58;13.30;99.90
28773;DHT22;15925;51.222;5.678;2023-11-19T10:38:24;13.30;99.90
28773;DHT22;15925;51.222;5.678;2023-11-19T10:40:51;13.40;99.90
28773;DHT22;15925;51.222;5.678;2023-11-19T10:43:20;13.40;99.90
28773;DHT22;15925;51.222;5.678;2023-11-19T10:45:48;13.40;99.90
28773;DHT22;15925;51.222;5.678;2023-11-19T10:48:14;13.50;99.90
28773;DHT22;15925;51.222;5.678;2023-11-19T10:50:42;13.40;99.90
28773;DHT22;15925;51.222;5.678;2023-11-19T10:53:12;13.40;99.90
28773;DHT22;15925;51.222;5.678;2023-11-19T10:55:47;13.50;99.90
28773;DHT22;15925;51.222;5.678;2023-11-19T10:58:15;13.50;99.90
28773;DHT22;15925;51.222;5.678;2023-11-19T11:01:02;13.50;99.90
28773;DHT22;15925;51.222;5.678;2023-11-19T11:03:39;13.60;99.90
28773;DHT22;15925;51.222;5.678;2023-11-19T11:06:06;13.50;99.90
28773;DHT22;15925;51.222;5.678;2023-11-19T11:08:32;13.40;99.90
28773;DHT22;15925;51.222;5.678;2023-11-19T11:11:02;13.40;99.90
28773;DHT22;15925;51.222;5.678;2023-11-19T11:13:30;13.40;99.90
28773;DHT22;15925;51.222;5.678;2023-11-19T11:15:57;13.50;99.90
28773;DHT22;15925;51.222;5.678;2023-11-19T11:18:24;13.50;99.90
28773;DHT22;15925;51.222;5.678;2023-11-19T11:21:01;13.50;99.90
28773;DHT22;15925;51.222;5.678;2023-11-19T11:26:06;13.50;99.90
28773;DHT22;15925;51.222;5.678;2023-11-19T11:37:19;13.40;99.90
28773;DHT22;15925;51.222;5.678;2023-11-19T11:39:47;13.40;99.90
28773;DHT22;15925;51.222;5.678;2023-11-19T11:47:26;13.30;99.90
28773;DHT22;15925;51.222;5.678;2023-11-19T11:49:52;13.30;99.90
28773;DHT22;15925;51.222;5.678;2023-11-19T11:52:19;13.20;99.90
28773;DHT22;15925;51.222;5.678;2023-11-19T11:54:45;13.10;99.90
28773;DHT22;15925;51.222;5.678;2023-11-19T11:57:13;13.00;99.90
28773;DHT22;15925;51.222;5.678;2023-11-19T11:59:45;13.10;99.90
28773;DHT22;15925;51.222;5.678;2023-11-19T12:02:17;13.10;99.90
28773;DHT22;15925;51.222;5.678;2023-11-19T12:04:46;13.10;99.90
28773;DHT22;15925;51.222;5.678;2023-11-19T12:07:14;13.20;99.90
28773;DHT22;15925;51.222;5.678;2023-11-19T12:09:42;13.30;99.90
28773;DHT22;15925;51.222;5.678;2023-11-19T12:15:03;13.30;99.90
28773;DHT22;15925;51.222;5.678;2023-11-19T12:20:02;13.30;99.90
28773;DHT22;15925;51.222;5.678;2023-11-19T12:22:28;13.30;99.90
28773;DHT22;15925;51.222;5.678;2023-11-19T12:24:54;13.40;99.90
28773;DHT22;15925;51.222;5.678;2023-11-19T12:27:20;13.50;99.90
28773;DHT22;15925;51.222;5.678;2023-11-19T12:29:48;13.50;99.90
28773;DHT22;15925;51.222;5.678;2023-11-19T12:32:14;13.60;99.90
28773;DHT22;15925;51.222;5.678;2023-11-19T12:34:40;13.60;99.90
28773;DHT22;15925;51.222;5.678;2023-11-19T12:37:06;13.60;99.90
28773;DHT22;15925;51.222;5.678;2023-11-19T12:39:35;13.70;99.90
28773;DHT22;15925;51.222;5.678;2023-11-19T12:42:06;13.70;99.90
28773;DHT22;15925;51.222;5.678;2023-11-19T12:44:32;13.70;99.90
28773;DHT22;15925;51.222;5.678;2023-11-19T12:47:06;13.70;99.90
28773;DHT22;15925;51.222;5.678;2023-11-19T12:49:33;13.70;99.90
28773;DHT22;15925;51.222;5.678;2023-11-19T12:51:59;13.70;99.90
28773;DHT22;15925;51.222;5.678;2023-11-19T12:54:33;13.70;99.90
28773;DHT22;15925;51.222;5.678;2023-11-19T12:56:59;13.70;99.90
28773;DHT22;15925;51.222;5.678;2023-11-19T12:59:25;13.60;99.90
28773;DHT22;15925;51.222;5.678;2023-11-19T13:01:59;13.60;99.90
28773;DHT22;15925;51.222;5.678;2023-11-19T13:04:31;13.60;99.90
28773;DHT22;15925;51.222;5.678;2023-11-19T13:06:58;13.50;99.90
28773;DHT22;15925;51.222;5.678;2023-11-19T13:09:27;13.50;99.90
28773;DHT22;15925;51.222;5.678;2023-11-19T13:11:54;13.40;99.90
28773;DHT22;15925;51.222;5.678;2023-11-19T13:14:20;13.40;99.90
28773;DHT22;15925;51.222;5.678;2023-11-19T13:16:46;13.40;99.90
28773;DHT22;15925;51.222;5.678;2023-11-19T13:19:13;13.30;99.90
28773;DHT22;15925;51.222;5.678;2023-11-19T13:21:39;13.30;99.90
28773;DHT22;15925;51.222;5.678;2023-11-19T13:24:06;13.20;99.90
28773;DHT22;15925;51.222;5.678;2023-11-19T13:26:32;13.10;99.90
28773;DHT22;15925;51.222;5.678;2023-11-19T13:28:58;13.10;99.90
28773;DHT22;15925;51.222;5.678;2023-11-19T13:31:24;13.00;99.90
28773;DHT22;15925;51.222;5.678;2023-11-19T13:33:49;12.90;99.90
28773;DHT22;15925;51.222;5.678;2023-11-19T13:36:18;12.90;99.90
28773;DHT22;15925;51.222;5.678;2023-11-19T13:38:45;12.80;99.90
28773;DHT22;15925;51.222;5.678;2023-11-19T13:41:11;12.70;99.90
28773;DHT22;15925;51.222;5.678;2023-11-19T13:43:37;12.70;99.90
28773;DHT22;15925;51.222;5.678;2023-11-19T13:46:04;12.60;99.90
28773;DHT22;15925;51.222;5.678;2023-11-19T13:48:30;12.40;99.90
28773;DHT22;15925;51.222;5.678;2023-11-19T13:50:56;12.40;99.90
28773;DHT22;15925;51.222;5.678;2023-11-19T13:53:22;12.40;99.90
28773;DHT22;15925;51.222;5.678;2023-11-19T13:55:51;12.40;99.90
28773;DHT22;15925;51.222;5.678;2023-11-19T13:58:17;12.40;99.90
28773;DHT22;15925;51.222;5.678;2023-11-19T14:00:42;12.30;99.90
28773;DHT22;15925;51.222;5.678;2023-11-19T14:03:10;12.30;99.90
28773;DHT22;15925;51.222;5.678;2023-11-19T14:05:39;12.30;99.90
28773;DHT22;15925;51.222;5.678;2023-11-19T14:08:06;12.40;99.90
28773;DHT22;15925;51.222;5.678;2023-11-19T14:10:40;12.40;99.90
28773;DHT22;15925;51.222;5.678;2023-11-19T14:13:09;12.40;99.90
28773;DHT22;15925;51.222;5.678;2023-11-19T14:15:35;12.40;99.90
28773;DHT22;15925;51.222;5.678;2023-11-19T14:18:01;12.50;99.90
28773;DHT22;15925;51.222;5.678;2023-11-19T14:20:28;12.40;99.90
28773;DHT22;15925;51.222;5.678;2023-11-19T14:22:54;12.40;99.90
28773;DHT22;15925;51.222;5.678;2023-11-19T14:25:21;12.40;99.90
28773;DHT22;15925;51.222;5.678;2023-11-19T14:27:49;12.40;99.90
28773;DHT22;15925;51.222;5.678;2023-11-19T14:30:14;12.40;99.90
28773;DHT22;15925;51.222;5.678;2023-11-19T14:32:42;12.40;99.90
28773;DHT22;15925;51.222;5.678;2023-11-19T14:35:10;12.30;99.90
28773;DHT22;15925;51.222;5.678;2023-11-19T14:37:36;12.30;99.90
28773;DHT22;15925;51.222;5.678;2023-11-19T14:40:02;12.30;99.90
28773;DHT22;15925;51.222;5.678;2023-11-19T14:42:31;12.30;99.90
28773;DHT22;15925;51.222;5.678;2023-11-19T14:44:57;12.30;99.90
28773;DHT22;15925;51.222;5.678;2023-11-19T14:47:24;12.30;99.90
28773;DHT22;15925;51.222;5.678;2023-11-19T14:49:50;12.30;99.90
28773;DHT22;15925;51.222;5.678;2023-11-19T14:52:17;12.30;99.90
28773;DHT22;15925;51.222;5.678;2023-11-19T14:54:42;12.30;99.90
28773;DHT22;15925;51.222;5.678;2023-11-19T14:57:08;12.30;99.90
28773;DHT22;15925;51.222;5.678;2023-11-19T14:59:35;12.30;99.90
28773;DHT22;15925;51.222;5.678;2023-11-19T15:02:01;12.30;99.90
28773;DHT22;15925;51.222;5.678;2023-11-19T15:04:27;12.30;99.90
28773;DHT22;15925;51.222;5.678;2023-11-19T15:06:53;12.40;99.90
28773;DHT22;15925;51.222;5.678;2023-11-19T15:09:19;12.40;99.90
28773;DHT22;15925;51.222;5.678;2023-11-19T15:11:46;12.40;99.90
28773;DHT22;15925;51.222;5.678;2023-11-19T15:14:13;12.40;99.90
28773;DHT22;15925;51.222;5.678;2023-11-19T15:16:45;12.40;99.90
28773;DHT22;15925;51.222;5.678;2023-11-19T15:19:11;12.40;99.90
28773;DHT22;15925;51.222;5.678;2023-11-19T15:21:41;12.30;99.90
28773;DHT22;15925;51.222;5.678;2023-11-19T15:24:08;12.30;99.90
28773;DHT22;15925;51.222;5.678;2023-11-19T15:26:34;12.30;99.90
28773;DHT22;15925;51.222;5.678;2023-11-19T15:29:01;12.20;99.90
28773;DHT22;15925;51.222;5.678;2023-11-19T15:31:28;12.20;99.90
28773;DHT22;15925;51.222;5.678;2023-11-19T15:33:54;12.20;99.90
28773;DHT22;15925;51.222;5.678;2023-11-19T15:36:20;12.10;99.90
28773;DHT22;15925;51.222;5.678;2023-11-19T15:38:46;12.20;99.90
28773;DHT22;15925;51.222;5.678;2023-11-19T15:41:14;12.10;99.90
28773;DHT22;15925;51.222;5.678;2023-11-19T15:43:40;12.10;99.90
28773;DHT22;15925;51.222;5.678;2023-11-19T15:46:07;12.10;99.90
28773;DHT22;15925;51.222;5.678;2023-11-19T15:48:33;12.20;99.90
28773;DHT22;15925;51.222;5.678;2023-11-19T15:50:59;12.10;99.90
28773;DHT22;15925;51.222;5.678;2023-11-19T15:53:25;12.10;99.90